Weather at Sandefjord Airport, Torp

Public forecast

Using degrees Celsius for public forecast. Weather courtesy of forecast.io.

Current aviation weather report (METAR) for Sandefjord Airport, Torp

2024/05/22 08:20 (retrieved 27 minutes ago)

ENTO 220820Z 03009KT 360V070 CAVOK 17/01 Q1020 NOSIG

Aviation forecast (TAF) for Sandefjord Airport, Torp

2024/05/22 06:39 (retrieved 2 hours ago)

TAF ENTO 220500Z 2206/2306 05012KT CAVOK BECMG 2212/2214 12012KT BECMG 2301/2303 03010KT